sensor_id;sensor_type;location;lat;lon;timestamp;P1;durP1;ratioP1;P2;durP2;ratioP2
26177;SDS011;13924;47.670;10.310;2023-03-23T00:00:40;5.5;;;4.0;;
26177;SDS011;13924;47.670;10.310;2023-03-23T00:15:37;6.1;;;4.1;;
26177;SDS011;13924;47.670;10.310;2023-03-23T00:30:43;5.6;;;3.4;;
26177;SDS011;13924;47.670;10.310;2023-03-23T00:45:38;4.1;;;3.4;;
26177;SDS011;13924;47.670;10.310;2023-03-23T01:00:40;4.1;;;3.8;;
26177;SDS011;13924;47.670;10.310;2023-03-23T01:15:44;5.4;;;3.6;;
26177;SDS011;13924;47.670;10.310;2023-03-23T01:30:59;5.0;;;3.9;;
26177;SDS011;13924;47.670;10.310;2023-03-23T01:45:48;5.4;;;3.8;;
26177;SDS011;13924;47.670;10.310;2023-03-23T02:00:41;5.2;;;4.0;;
26177;SDS011;13924;47.670;10.310;2023-03-23T02:15:44;4.5;;;4.1;;
26177;SDS011;13924;47.670;10.310;2023-03-23T02:30:47;4.5;;;3.7;;
26177;SDS011;13924;47.670;10.310;2023-03-23T02:45:44;5.1;;;4.6;;
26177;SDS011;13924;47.670;10.310;2023-03-23T03:01:14;3.9;;;3.5;;
26177;SDS011;13924;47.670;10.310;2023-03-23T03:15:50;5.3;;;4.7;;
26177;SDS011;13924;47.670;10.310;2023-03-23T03:30:54;4.9;;;3.8;;
26177;SDS011;13924;47.670;10.310;2023-03-23T03:45:45;5.6;;;3.8;;
26177;SDS011;13924;47.670;10.310;2023-03-23T04:00:46;7.4;;;4.4;;
26177;SDS011;13924;47.670;10.310;2023-03-23T04:16:13;8.8;;;4.5;;
26177;SDS011;13924;47.670;10.310;2023-03-23T04:30:57;6.0;;;4.3;;
26177;SDS011;13924;47.670;10.310;2023-03-23T04:45:52;7.9;;;4.3;;
26177;SDS011;13924;47.670;10.310;2023-03-23T05:00:49;5.5;;;4.4;;
26177;SDS011;13924;47.670;10.310;2023-03-23T05:32:07;8.6;;;5.0;;
26177;SDS011;13924;47.670;10.310;2023-03-23T05:46:39;5.8;;;5.1;;
26177;SDS011;13924;47.670;10.310;2023-03-23T06:01:51;10.1;;;4.9;;
26177;SDS011;13924;47.670;10.310;2023-03-23T06:16:42;5.7;;;4.8;;
26177;SDS011;13924;47.670;10.310;2023-03-23T06:31:39;5.8;;;4.6;;
26177;SDS011;13924;47.670;10.310;2023-03-23T06:46:38;6.6;;;5.1;;
26177;SDS011;13924;47.670;10.310;2023-03-23T07:01:39;7.3;;;5.5;;
26177;SDS011;13924;47.670;10.310;2023-03-23T07:16:41;7.8;;;5.2;;
26177;SDS011;13924;47.670;10.310;2023-03-23T07:31:40;6.4;;;5.0;;
26177;SDS011;13924;47.670;10.310;2023-03-23T07:47:08;6.4;;;4.9;;
26177;SDS011;13924;47.670;10.310;2023-03-23T08:01:41;6.0;;;4.9;;
26177;SDS011;13924;47.670;10.310;2023-03-23T08:16:42;5.5;;;4.6;;
26177;SDS011;13924;47.670;10.310;2023-03-23T08:31:43;9.6;;;5.6;;
26177;SDS011;13924;47.670;10.310;2023-03-23T08:46:50;7.3;;;5.5;;
26177;SDS011;13924;47.670;10.310;2023-03-23T09:01:54;5.3;;;4.7;;
26177;SDS011;13924;47.670;10.310;2023-03-23T09:16:47;6.6;;;4.8;;
26177;SDS011;13924;47.670;10.310;2023-03-23T09:31:45;9.5;;;6.3;;
26177;SDS011;13924;47.670;10.310;2023-03-23T09:46:49;9.1;;;7.4;;
26177;SDS011;13924;47.670;10.310;2023-03-23T10:01:52;10.4;;;7.6;;
26177;SDS011;13924;47.670;10.310;2023-03-23T10:16:52;9.2;;;7.2;;
26177;SDS011;13924;47.670;10.310;2023-03-23T10:31:51;6.9;;;6.2;;
26177;SDS011;13924;47.670;10.310;2023-03-23T10:46:49;7.4;;;5.4;;
26177;SDS011;13924;47.670;10.310;2023-03-23T11:01:50;7.7;;;5.5;;
26177;SDS011;13924;47.670;10.310;2023-03-23T11:16:50;7.9;;;5.6;;
26177;SDS011;13924;47.670;10.310;2023-03-23T11:31:49;6.3;;;5.3;;
26177;SDS011;13924;47.670;10.310;2023-03-23T11:46:53;4.2;;;3.6;;
26177;SDS011;13924;47.670;10.310;2023-03-23T12:01:54;3.7;;;3.4;;
26177;SDS011;13924;47.670;10.310;2023-03-23T12:16:54;4.0;;;2.2;;
26177;SDS011;13924;47.670;10.310;2023-03-23T12:31:54;2.0;;;1.8;;
26177;SDS011;13924;47.670;10.310;2023-03-23T12:46:54;2.6;;;2.3;;
26177;SDS011;13924;47.670;10.310;2023-03-23T13:01:54;2.9;;;2.5;;
26177;SDS011;13924;47.670;10.310;2023-03-23T13:16:55;3.8;;;2.7;;
26177;SDS011;13924;47.670;10.310;2023-03-23T13:32:04;4.8;;;2.5;;
26177;SDS011;13924;47.670;10.310;2023-03-23T13:47:06;3.4;;;2.5;;
26177;SDS011;13924;47.670;10.310;2023-03-23T14:02:26;2.8;;;2.2;;
26177;SDS011;13924;47.670;10.310;2023-03-23T14:17:05;2.5;;;2.1;;
26177;SDS011;13924;47.670;10.310;2023-03-23T14:32:01;3.3;;;1.8;;
26177;SDS011;13924;47.670;10.310;2023-03-23T14:47:01;3.4;;;2.0;;
26177;SDS011;13924;47.670;10.310;2023-03-23T15:02:01;3.5;;;2.0;;
26177;SDS011;13924;47.670;10.310;2023-03-23T15:17:09;5.8;;;4.9;;
26177;SDS011;13924;47.670;10.310;2023-03-23T15:32:21;4.5;;;2.0;;
26177;SDS011;13924;47.670;10.310;2023-03-23T15:47:14;3.5;;;1.9;;
26177;SDS011;13924;47.670;10.310;2023-03-23T16:02:03;3.8;;;3.0;;
26177;SDS011;13924;47.670;10.310;2023-03-23T16:17:04;6.4;;;2.9;;
26177;SDS011;13924;47.670;10.310;2023-03-23T16:32:07;3.8;;;3.1;;
26177;SDS011;13924;47.670;10.310;2023-03-23T16:47:05;3.7;;;3.2;;
26177;SDS011;13924;47.670;10.310;2023-03-23T17:02:09;8.4;;;4.1;;
26177;SDS011;13924;47.670;10.310;2023-03-23T17:17:07;4.5;;;3.6;;
26177;SDS011;13924;47.670;10.310;2023-03-23T17:32:07;6.4;;;3.8;;
26177;SDS011;13924;47.670;10.310;2023-03-23T17:47:10;5.1;;;3.8;;
26177;SDS011;13924;47.670;10.310;2023-03-23T18:02:09;7.3;;;4.2;;
26177;SDS011;13924;47.670;10.310;2023-03-23T18:17:08;5.3;;;3.5;;
26177;SDS011;13924;47.670;10.310;2023-03-23T18:32:12;9.5;;;5.9;;
26177;SDS011;13924;47.670;10.310;2023-03-23T19:02:09;6.7;;;4.6;;
26177;SDS011;13924;47.670;10.310;2023-03-23T19:17:12;7.3;;;5.9;;
26177;SDS011;13924;47.670;10.310;2023-03-23T20:00:02;9.5;;;7.8;;
26177;SDS011;13924;47.670;10.310;2023-03-23T20:02:20;7.9;;;6.7;;
26177;SDS011;13924;47.670;10.310;2023-03-23T20:17:15;17.0;;;10.7;;
26177;SDS011;13924;47.670;10.310;2023-03-23T20:32:23;9.0;;;6.3;;
26177;SDS011;13924;47.670;10.310;2023-03-23T20:47:16;12.6;;;7.7;;
26177;SDS011;13924;47.670;10.310;2023-03-23T21:02:17;9.3;;;6.3;;
26177;SDS011;13924;47.670;10.310;2023-03-23T21:17:14;12.3;;;8.2;;
26177;SDS011;13924;47.670;10.310;2023-03-23T21:32:15;13.0;;;8.4;;
26177;SDS011;13924;47.670;10.310;2023-03-23T21:47:15;10.3;;;7.6;;
26177;SDS011;13924;47.670;10.310;2023-03-23T22:02:16;16.7;;;8.9;;
26177;SDS011;13924;47.670;10.310;2023-03-23T22:32:19;10.3;;;7.4;;
26177;SDS011;13924;47.670;10.310;2023-03-23T22:47:17;8.0;;;5.3;;
26177;SDS011;13924;47.670;10.310;2023-03-23T23:00:49;6.6;;;4.8;;
26177;SDS011;13924;47.670;10.310;2023-03-23T23:30:40;8.1;;;4.6;;
26177;SDS011;13924;47.670;10.310;2023-03-23T23:45:41;6.0;;;4.3;;
